sensor_id;sensor_type;location;lat;lon;timestamp;P1;durP1;ratioP1;P2;durP2;ratioP2
67162;SDS011;54092;53.088;8.850;2022-12-05T00:01:54;64.88;;;23.15;;
67162;SDS011;54092;53.088;8.850;2022-12-05T00:04:20;62.95;;;20.30;;
67162;SDS011;54092;53.088;8.850;2022-12-05T00:06:46;68.60;;;22.15;;
67162;SDS011;54092;53.088;8.850;2022-12-05T00:09:12;68.28;;;21.50;;
67162;SDS011;54092;53.088;8.850;2022-12-05T00:11:38;65.80;;;22.90;;
67162;SDS011;54092;53.088;8.850;2022-12-05T00:14:06;67.80;;;21.02;;
67162;SDS011;54092;53.088;8.850;2022-12-05T00:16:34;66.25;;;20.45;;
67162;SDS011;54092;53.088;8.850;2022-12-05T00:19:01;59.47;;;21.05;;
67162;SDS011;54092;53.088;8.850;2022-12-05T00:21:29;67.53;;;22.38;;
67162;SDS011;54092;53.088;8.850;2022-12-05T00:23:56;74.40;;;22.02;;
67162;SDS011;54092;53.088;8.850;2022-12-05T00:26:23;74.82;;;21.50;;
67162;SDS011;54092;53.088;8.850;2022-12-05T00:28:49;72.30;;;23.25;;
67162;SDS011;54092;53.088;8.850;2022-12-05T00:31:17;64.40;;;22.77;;
67162;SDS011;54092;53.088;8.850;2022-12-05T00:33:47;60.15;;;22.50;;
67162;SDS011;54092;53.088;8.850;2022-12-05T00:36:24;72.70;;;22.13;;
67162;SDS011;54092;53.088;8.850;2022-12-05T00:38:51;66.18;;;21.33;;
67162;SDS011;54092;53.088;8.850;2022-12-05T00:41:18;68.22;;;22.10;;
67162;SDS011;54092;53.088;8.850;2022-12-05T00:43:49;72.47;;;22.83;;
67162;SDS011;54092;53.088;8.850;2022-12-05T00:46:16;62.17;;;20.60;;
67162;SDS011;54092;53.088;8.850;2022-12-05T00:48:44;76.00;;;23.40;;
67162;SDS011;54092;53.088;8.850;2022-12-05T00:51:11;64.95;;;21.60;;
67162;SDS011;54092;53.088;8.850;2022-12-05T00:53:42;66.25;;;21.08;;
67162;SDS011;54092;53.088;8.850;2022-12-05T00:56:10;72.78;;;22.98;;
67162;SDS011;54092;53.088;8.850;2022-12-05T00:58:37;71.57;;;22.33;;
67162;SDS011;54092;53.088;8.850;2022-12-05T01:03:36;68.03;;;21.63;;
67162;SDS011;54092;53.088;8.850;2022-12-05T01:06:02;74.13;;;24.02;;
67162;SDS011;54092;53.088;8.850;2022-12-05T01:08:30;76.95;;;22.58;;
67162;SDS011;54092;53.088;8.850;2022-12-05T01:10:56;66.45;;;21.67;;
67162;SDS011;54092;53.088;8.850;2022-12-05T01:13:23;69.30;;;22.48;;
67162;SDS011;54092;53.088;8.850;2022-12-05T01:15:49;67.22;;;22.48;;
67162;SDS011;54092;53.088;8.850;2022-12-05T01:18:16;70.20;;;21.25;;
67162;SDS011;54092;53.088;8.850;2022-12-05T01:20:42;75.75;;;20.90;;
67162;SDS011;54092;53.088;8.850;2022-12-05T01:23:08;61.58;;;20.80;;
67162;SDS011;54092;53.088;8.850;2022-12-05T01:25:34;62.55;;;19.98;;
67162;SDS011;54092;53.088;8.850;2022-12-05T01:28:02;62.22;;;20.30;;
67162;SDS011;54092;53.088;8.850;2022-12-05T01:30:28;60.08;;;19.92;;
67162;SDS011;54092;53.088;8.850;2022-12-05T01:32:54;62.47;;;20.13;;
67162;SDS011;54092;53.088;8.850;2022-12-05T01:35:19;67.53;;;22.15;;
67162;SDS011;54092;53.088;8.850;2022-12-05T01:37:45;69.88;;;22.33;;
67162;SDS011;54092;53.088;8.850;2022-12-05T01:40:10;66.07;;;20.38;;
67162;SDS011;54092;53.088;8.850;2022-12-05T01:42:37;75.72;;;22.77;;
67162;SDS011;54092;53.088;8.850;2022-12-05T01:45:13;75.03;;;21.48;;
67162;SDS011;54092;53.088;8.850;2022-12-05T01:47:42;69.20;;;21.60;;
67162;SDS011;54092;53.088;8.850;2022-12-05T01:50:08;63.78;;;20.30;;
67162;SDS011;54092;53.088;8.850;2022-12-05T01:52:35;65.13;;;20.27;;
67162;SDS011;54092;53.088;8.850;2022-12-05T01:55:11;71.78;;;22.20;;
67162;SDS011;54092;53.088;8.850;2022-12-05T01:57:38;68.53;;;20.77;;
67162;SDS011;54092;53.088;8.850;2022-12-05T02:00:10;70.65;;;22.88;;
67162;SDS011;54092;53.088;8.850;2022-12-05T02:02:39;66.32;;;21.00;;
67162;SDS011;54092;53.088;8.850;2022-12-05T02:05:11;69.35;;;20.83;;
67162;SDS011;54092;53.088;8.850;2022-12-05T02:07:42;59.58;;;20.50;;
67162;SDS011;54092;53.088;8.850;2022-12-05T02:10:09;69.68;;;22.85;;
67162;SDS011;54092;53.088;8.850;2022-12-05T02:12:35;69.53;;;21.48;;
67162;SDS011;54092;53.088;8.850;2022-12-05T02:15:08;61.60;;;20.58;;
67162;SDS011;54092;53.088;8.850;2022-12-05T02:17:56;64.55;;;21.27;;
67162;SDS011;54092;53.088;8.850;2022-12-05T02:28:54;70.20;;;21.25;;
67162;SDS011;54092;53.088;8.850;2022-12-05T02:40:04;75.72;;;22.58;;
67162;SDS011;54092;53.088;8.850;2022-12-05T02:42:29;76.95;;;22.20;;
67162;SDS011;54092;53.088;8.850;2022-12-05T02:45:16;67.65;;;21.15;;
67162;SDS011;54092;53.088;8.850;2022-12-05T02:47:47;60.95;;;18.60;;
67162;SDS011;54092;53.088;8.850;2022-12-05T02:50:17;73.97;;;21.23;;
67162;SDS011;54092;53.088;8.850;2022-12-05T02:52:49;71.15;;;21.42;;
67162;SDS011;54092;53.088;8.850;2022-12-05T02:55:17;72.68;;;22.38;;
67162;SDS011;54092;53.088;8.850;2022-12-05T02:57:45;72.68;;;19.90;;
67162;SDS011;54092;53.088;8.850;2022-12-05T03:00:15;72.22;;;20.85;;
67162;SDS011;54092;53.088;8.850;2022-12-05T03:02:41;70.32;;;22.90;;
67162;SDS011;54092;53.088;8.850;2022-12-05T03:07:56;65.72;;;20.30;;
67162;SDS011;54092;53.088;8.850;2022-12-05T03:10:24;63.70;;;20.77;;
67162;SDS011;54092;53.088;8.850;2022-12-05T03:12:55;72.70;;;21.42;;
67162;SDS011;54092;53.088;8.850;2022-12-05T03:15:25;61.85;;;19.95;;
67162;SDS011;54092;53.088;8.850;2022-12-05T03:18:05;69.00;;;22.83;;
67162;SDS011;54092;53.088;8.850;2022-12-05T03:23:52;63.22;;;18.35;;
67162;SDS011;54092;53.088;8.850;2022-12-05T03:31:38;64.03;;;19.15;;
67162;SDS011;54092;53.088;8.850;2022-12-05T03:34:41;65.07;;;20.10;;
67162;SDS011;54092;53.088;8.850;2022-12-05T03:40:48;72.32;;;20.38;;
67162;SDS011;54092;53.088;8.850;2022-12-05T03:43:02;66.95;;;20.50;;
67162;SDS011;54092;53.088;8.850;2022-12-05T03:45:37;65.20;;;20.05;;
67162;SDS011;54092;53.088;8.850;2022-12-05T03:48:12;68.25;;;19.95;;
67162;SDS011;54092;53.088;8.850;2022-12-05T03:50:43;69.70;;;20.63;;
67162;SDS011;54092;53.088;8.850;2022-12-05T03:53:15;66.95;;;20.23;;
67162;SDS011;54092;53.088;8.850;2022-12-05T03:56:11;71.15;;;20.65;;
67162;SDS011;54092;53.088;8.850;2022-12-05T03:58:48;67.93;;;19.90;;
67162;SDS011;54092;53.088;8.850;2022-12-05T04:01:20;75.38;;;20.48;;
67162;SDS011;54092;53.088;8.850;2022-12-05T04:03:51;61.63;;;20.10;;
67162;SDS011;54092;53.088;8.850;2022-12-05T04:06:29;68.63;;;21.13;;
67162;SDS011;54092;53.088;8.850;2022-12-05T04:09:00;69.82;;;21.02;;
67162;SDS011;54092;53.088;8.850;2022-12-05T04:11:30;72.40;;;19.95;;
67162;SDS011;54092;53.088;8.850;2022-12-05T04:14:00;67.82;;;21.02;;
67162;SDS011;54092;53.088;8.850;2022-12-05T04:16:32;65.43;;;20.35;;
67162;SDS011;54092;53.088;8.850;2022-12-05T04:19:28;58.00;;;18.25;;
67162;SDS011;54092;53.088;8.850;2022-12-05T04:22:15;77.97;;;19.75;;
67162;SDS011;54092;53.088;8.850;2022-12-05T04:24:42;68.45;;;20.25;;
67162;SDS011;54092;53.088;8.850;2022-12-05T04:27:28;64.30;;;18.02;;
67162;SDS011;54092;53.088;8.850;2022-12-05T04:30:00;65.38;;;19.15;;
67162;SDS011;54092;53.088;8.850;2022-12-05T04:35:15;67.80;;;19.65;;
67162;SDS011;54092;53.088;8.850;2022-12-05T04:38:07;57.35;;;17.30;;
67162;SDS011;54092;53.088;8.850;2022-12-05T04:40:55;57.83;;;18.20;;
67162;SDS011;54092;53.088;8.850;2022-12-05T04:43:24;57.88;;;18.42;;
67162;SDS011;54092;53.088;8.850;2022-12-05T04:45:52;56.92;;;18.13;;
67162;SDS011;54092;53.088;8.850;2022-12-05T04:48:21;65.67;;;21.17;;
67162;SDS011;54092;53.088;8.850;2022-12-05T04:50:49;58.47;;;19.02;;
67162;SDS011;54092;53.088;8.850;2022-12-05T04:53:17;53.08;;;17.20;;
67162;SDS011;54092;53.088;8.850;2022-12-05T04:55:45;59.33;;;18.75;;
67162;SDS011;54092;53.088;8.850;2022-12-05T04:58:23;68.03;;;19.48;;
67162;SDS011;54092;53.088;8.850;2022-12-05T05:01:00;61.42;;;19.23;;
67162;SDS011;54092;53.088;8.850;2022-12-05T05:06:12;59.83;;;18.20;;
67162;SDS011;54092;53.088;8.850;2022-12-05T05:08:45;58.05;;;18.90;;
67162;SDS011;54092;53.088;8.850;2022-12-05T05:11:14;61.08;;;19.52;;
67162;SDS011;54092;53.088;8.850;2022-12-05T05:13:42;51.10;;;16.98;;
67162;SDS011;54092;53.088;8.850;2022-12-05T05:16:12;57.03;;;18.15;;
67162;SDS011;54092;53.088;8.850;2022-12-05T05:18:45;67.65;;;19.35;;
67162;SDS011;54092;53.088;8.850;2022-12-05T05:21:16;56.42;;;18.52;;
67162;SDS011;54092;53.088;8.850;2022-12-05T05:23:47;65.95;;;18.35;;
67162;SDS011;54092;53.088;8.850;2022-12-05T05:26:13;55.45;;;16.90;;
67162;SDS011;54092;53.088;8.850;2022-12-05T05:28:39;57.60;;;18.70;;
67162;SDS011;54092;53.088;8.850;2022-12-05T05:31:05;58.30;;;18.17;;
67162;SDS011;54092;53.088;8.850;2022-12-05T05:33:31;58.08;;;17.85;;
67162;SDS011;54092;53.088;8.850;2022-12-05T05:36:00;64.15;;;18.75;;
67162;SDS011;54092;53.088;8.850;2022-12-05T05:38:46;55.63;;;17.08;;
67162;SDS011;54092;53.088;8.850;2022-12-05T05:41:21;49.42;;;16.40;;
67162;SDS011;54092;53.088;8.850;2022-12-05T05:43:55;50.67;;;18.15;;
67162;SDS011;54092;53.088;8.850;2022-12-05T05:46:22;67.00;;;18.90;;
67162;SDS011;54092;53.088;8.850;2022-12-05T05:48:50;54.22;;;18.25;;
67162;SDS011;54092;53.088;8.850;2022-12-05T05:51:17;56.65;;;18.67;;
67162;SDS011;54092;53.088;8.850;2022-12-05T05:53:43;55.90;;;18.95;;
67162;SDS011;54092;53.088;8.850;2022-12-05T05:56:10;57.03;;;18.67;;
67162;SDS011;54092;53.088;8.850;2022-12-05T05:58:37;51.15;;;17.35;;
67162;SDS011;54092;53.088;8.850;2022-12-05T06:01:07;60.97;;;18.73;;
67162;SDS011;54092;53.088;8.850;2022-12-05T06:03:38;60.08;;;19.20;;
67162;SDS011;54092;53.088;8.850;2022-12-05T06:06:05;58.35;;;17.63;;
67162;SDS011;54092;53.088;8.850;2022-12-05T06:08:33;51.05;;;17.50;;
67162;SDS011;54092;53.088;8.850;2022-12-05T06:11:04;60.47;;;18.48;;
67162;SDS011;54092;53.088;8.850;2022-12-05T06:13:35;54.78;;;18.08;;
67162;SDS011;54092;53.088;8.850;2022-12-05T06:16:01;61.00;;;18.52;;
67162;SDS011;54092;53.088;8.850;2022-12-05T06:18:28;60.17;;;18.45;;
67162;SDS011;54092;53.088;8.850;2022-12-05T06:20:54;60.05;;;18.58;;
67162;SDS011;54092;53.088;8.850;2022-12-05T06:23:21;59.60;;;17.35;;
67162;SDS011;54092;53.088;8.850;2022-12-05T06:25:47;59.95;;;17.90;;
67162;SDS011;54092;53.088;8.850;2022-12-05T06:28:13;56.38;;;18.88;;
67162;SDS011;54092;53.088;8.850;2022-12-05T06:30:39;48.10;;;16.80;;
67162;SDS011;54092;53.088;8.850;2022-12-05T06:33:05;60.83;;;17.67;;
67162;SDS011;54092;53.088;8.850;2022-12-05T06:35:30;60.33;;;18.73;;
67162;SDS011;54092;53.088;8.850;2022-12-05T06:37:56;50.72;;;17.95;;
67162;SDS011;54092;53.088;8.850;2022-12-05T06:40:21;57.83;;;18.05;;
67162;SDS011;54092;53.088;8.850;2022-12-05T06:42:47;58.47;;;18.90;;
67162;SDS011;54092;53.088;8.850;2022-12-05T06:45:12;54.85;;;17.60;;
67162;SDS011;54092;53.088;8.850;2022-12-05T06:47:38;56.63;;;17.45;;
67162;SDS011;54092;53.088;8.850;2022-12-05T06:50:03;53.50;;;16.80;;
67162;SDS011;54092;53.088;8.850;2022-12-05T06:52:29;50.63;;;17.40;;
67162;SDS011;54092;53.088;8.850;2022-12-05T06:54:55;54.53;;;18.20;;
67162;SDS011;54092;53.088;8.850;2022-12-05T06:57:20;49.83;;;16.40;;
67162;SDS011;54092;53.088;8.850;2022-12-05T06:59:46;53.28;;;17.90;;
67162;SDS011;54092;53.088;8.850;2022-12-05T07:02:11;52.88;;;16.13;;
67162;SDS011;54092;53.088;8.850;2022-12-05T07:04:37;50.67;;;17.20;;
67162;SDS011;54092;53.088;8.850;2022-12-05T07:07:03;46.97;;;17.48;;
67162;SDS011;54092;53.088;8.850;2022-12-05T07:09:29;51.28;;;17.45;;
67162;SDS011;54092;53.088;8.850;2022-12-05T07:12:12;54.97;;;16.20;;
67162;SDS011;54092;53.088;8.850;2022-12-05T07:14:40;47.83;;;17.10;;
67162;SDS011;54092;53.088;8.850;2022-12-05T07:17:06;52.80;;;16.02;;
67162;SDS011;54092;53.088;8.850;2022-12-05T07:19:32;52.88;;;17.55;;
67162;SDS011;54092;53.088;8.850;2022-12-05T07:21:57;60.38;;;16.27;;
67162;SDS011;54092;53.088;8.850;2022-12-05T07:24:23;53.17;;;15.95;;
67162;SDS011;54092;53.088;8.850;2022-12-05T07:26:48;51.22;;;17.05;;
67162;SDS011;54092;53.088;8.850;2022-12-05T07:29:14;47.17;;;15.90;;
67162;SDS011;54092;53.088;8.850;2022-12-05T07:31:39;50.25;;;17.30;;
67162;SDS011;54092;53.088;8.850;2022-12-05T07:34:05;47.90;;;16.00;;
67162;SDS011;54092;53.088;8.850;2022-12-05T07:36:30;46.80;;;16.10;;
67162;SDS011;54092;53.088;8.850;2022-12-05T07:38:57;52.17;;;15.82;;
67162;SDS011;54092;53.088;8.850;2022-12-05T07:41:24;48.78;;;16.13;;
67162;SDS011;54092;53.088;8.850;2022-12-05T07:43:54;46.17;;;16.63;;
67162;SDS011;54092;53.088;8.850;2022-12-05T07:46:21;49.03;;;16.50;;
67162;SDS011;54092;53.088;8.850;2022-12-05T07:48:48;48.72;;;16.02;;
67162;SDS011;54092;53.088;8.850;2022-12-05T07:51:14;45.75;;;15.38;;
67162;SDS011;54092;53.088;8.850;2022-12-05T07:53:41;45.42;;;15.55;;
67162;SDS011;54092;53.088;8.850;2022-12-05T07:56:08;51.28;;;15.55;;
67162;SDS011;54092;53.088;8.850;2022-12-05T07:58:35;48.03;;;14.75;;
67162;SDS011;54092;53.088;8.850;2022-12-05T08:01:15;45.42;;;15.77;;
67162;SDS011;54092;53.088;8.850;2022-12-05T08:03:41;49.00;;;16.07;;
67162;SDS011;54092;53.088;8.850;2022-12-05T08:06:08;51.33;;;16.60;;
67162;SDS011;54092;53.088;8.850;2022-12-05T08:08:44;57.13;;;17.55;;
67162;SDS011;54092;53.088;8.850;2022-12-05T08:13:44;44.53;;;13.52;;
67162;SDS011;54092;53.088;8.850;2022-12-05T08:16:11;46.35;;;16.40;;
67162;SDS011;54092;53.088;8.850;2022-12-05T08:18:39;43.22;;;14.35;;
67162;SDS011;54092;53.088;8.850;2022-12-05T08:21:07;41.33;;;14.63;;
67162;SDS011;54092;53.088;8.850;2022-12-05T08:23:35;42.60;;;14.57;;
67162;SDS011;54092;53.088;8.850;2022-12-05T08:26:02;44.10;;;14.98;;
67162;SDS011;54092;53.088;8.850;2022-12-05T08:28:29;39.30;;;14.15;;
67162;SDS011;54092;53.088;8.850;2022-12-05T08:30:55;42.80;;;13.65;;
67162;SDS011;54092;53.088;8.850;2022-12-05T08:33:27;40.53;;;14.32;;
67162;SDS011;54092;53.088;8.850;2022-12-05T08:35:53;38.28;;;13.88;;
67162;SDS011;54092;53.088;8.850;2022-12-05T08:38:19;34.47;;;12.23;;
67162;SDS011;54092;53.088;8.850;2022-12-05T08:40:44;38.47;;;13.02;;
67162;SDS011;54092;53.088;8.850;2022-12-05T08:43:11;34.15;;;11.85;;
67162;SDS011;54092;53.088;8.850;2022-12-05T08:45:37;43.90;;;13.68;;
67162;SDS011;54092;53.088;8.850;2022-12-05T08:48:02;37.42;;;13.20;;
67162;SDS011;54092;53.088;8.850;2022-12-05T08:50:28;36.20;;;13.10;;
67162;SDS011;54092;53.088;8.850;2022-12-05T08:52:54;37.00;;;12.48;;
67162;SDS011;54092;53.088;8.850;2022-12-05T08:55:19;36.80;;;12.73;;
67162;SDS011;54092;53.088;8.850;2022-12-05T08:57:45;37.20;;;12.88;;
67162;SDS011;54092;53.088;8.850;2022-12-05T09:00:10;41.58;;;14.38;;
67162;SDS011;54092;53.088;8.850;2022-12-05T09:02:36;38.40;;;12.60;;
67162;SDS011;54092;53.088;8.850;2022-12-05T09:05:02;41.67;;;13.35;;
67162;SDS011;54092;53.088;8.850;2022-12-05T09:07:27;38.10;;;12.60;;
67162;SDS011;54092;53.088;8.850;2022-12-05T09:09:53;36.72;;;11.65;;
67162;SDS011;54092;53.088;8.850;2022-12-05T09:12:18;34.70;;;13.00;;
67162;SDS011;54092;53.088;8.850;2022-12-05T09:14:44;37.53;;;13.18;;
67162;SDS011;54092;53.088;8.850;2022-12-05T09:17:09;30.90;;;12.07;;
67162;SDS011;54092;53.088;8.850;2022-12-05T09:19:35;35.28;;;12.65;;
67162;SDS011;54092;53.088;8.850;2022-12-05T09:22:00;36.60;;;12.45;;
67162;SDS011;54092;53.088;8.850;2022-12-05T09:24:26;39.75;;;12.27;;
67162;SDS011;54092;53.088;8.850;2022-12-05T09:26:52;31.00;;;11.07;;
67162;SDS011;54092;53.088;8.850;2022-12-05T09:29:17;36.45;;;12.55;;
67162;SDS011;54092;53.088;8.850;2022-12-05T09:31:43;36.15;;;11.93;;
67162;SDS011;54092;53.088;8.850;2022-12-05T09:34:10;30.50;;;11.27;;
67162;SDS011;54092;53.088;8.850;2022-12-05T09:36:38;32.28;;;11.13;;
67162;SDS011;54092;53.088;8.850;2022-12-05T09:39:04;32.50;;;11.73;;
67162;SDS011;54092;53.088;8.850;2022-12-05T09:49:55;34.13;;;11.93;;
67162;SDS011;54092;53.088;8.850;2022-12-05T09:52:42;35.47;;;11.27;;
67162;SDS011;54092;53.088;8.850;2022-12-05T09:55:28;28.33;;;11.07;;
67162;SDS011;54092;53.088;8.850;2022-12-05T10:04:14;35.33;;;12.02;;
67162;SDS011;54092;53.088;8.850;2022-12-05T10:09:44;29.40;;;9.40;;
67162;SDS011;54092;53.088;8.850;2022-12-05T10:26:34;33.25;;;11.30;;
67162;SDS011;54092;53.088;8.850;2022-12-05T10:31:37;32.08;;;10.38;;
67162;SDS011;54092;53.088;8.850;2022-12-05T10:34:08;25.33;;;9.63;;
67162;SDS011;54092;53.088;8.850;2022-12-05T10:36:36;26.67;;;9.77;;
67162;SDS011;54092;53.088;8.850;2022-12-05T10:39:01;29.90;;;10.27;;
67162;SDS011;54092;53.088;8.850;2022-12-05T10:41:27;29.00;;;10.45;;
67162;SDS011;54092;53.088;8.850;2022-12-05T10:43:53;25.63;;;9.63;;
67162;SDS011;54092;53.088;8.850;2022-12-05T10:46:20;31.67;;;9.73;;
67162;SDS011;54092;53.088;8.850;2022-12-05T10:48:46;29.00;;;9.57;;
67162;SDS011;54092;53.088;8.850;2022-12-05T10:51:12;27.85;;;9.57;;
67162;SDS011;54092;53.088;8.850;2022-12-05T10:53:47;23.55;;;9.00;;
67162;SDS011;54092;53.088;8.850;2022-12-05T10:59:00;26.63;;;9.82;;
67162;SDS011;54092;53.088;8.850;2022-12-05T11:01:25;24.63;;;9.68;;
67162;SDS011;54092;53.088;8.850;2022-12-05T11:03:55;25.73;;;10.10;;
67162;SDS011;54092;53.088;8.850;2022-12-05T11:06:29;26.95;;;9.90;;
67162;SDS011;54092;53.088;8.850;2022-12-05T11:14:38;32.03;;;11.02;;
67162;SDS011;54092;53.088;8.850;2022-12-05T11:17:04;31.05;;;10.98;;
67162;SDS011;54092;53.088;8.850;2022-12-05T11:19:34;34.17;;;11.18;;
67162;SDS011;54092;53.088;8.850;2022-12-05T11:22:01;34.30;;;11.63;;
67162;SDS011;54092;53.088;8.850;2022-12-05T11:24:30;33.05;;;11.02;;
67162;SDS011;54092;53.088;8.850;2022-12-05T11:26:56;31.80;;;12.35;;
67162;SDS011;54092;53.088;8.850;2022-12-05T11:29:27;31.83;;;11.32;;
67162;SDS011;54092;53.088;8.850;2022-12-05T11:31:53;29.63;;;11.90;;
67162;SDS011;54092;53.088;8.850;2022-12-05T11:34:20;34.10;;;11.60;;
67162;SDS011;54092;53.088;8.850;2022-12-05T11:36:50;32.05;;;11.15;;
67162;SDS011;54092;53.088;8.850;2022-12-05T11:39:19;35.55;;;12.02;;
67162;SDS011;54092;53.088;8.850;2022-12-05T11:47:21;37.63;;;11.52;;
67162;SDS011;54092;53.088;8.850;2022-12-05T11:50:17;33.10;;;11.10;;
67162;SDS011;54092;53.088;8.850;2022-12-05T11:53:07;28.40;;;11.60;;
67162;SDS011;54092;53.088;8.850;2022-12-05T11:55:46;36.72;;;11.00;;
67162;SDS011;54092;53.088;8.850;2022-12-05T12:06:28;39.20;;;11.93;;
67162;SDS011;54092;53.088;8.850;2022-12-05T12:14:24;32.70;;;11.38;;
67162;SDS011;54092;53.088;8.850;2022-12-05T12:19:52;30.35;;;11.90;;
67162;SDS011;54092;53.088;8.850;2022-12-05T12:22:36;31.85;;;11.00;;
67162;SDS011;54092;53.088;8.850;2022-12-05T12:28:09;32.72;;;12.27;;
67162;SDS011;54092;53.088;8.850;2022-12-05T12:36:17;40.33;;;12.75;;
67162;SDS011;54092;53.088;8.850;2022-12-05T12:52:13;33.25;;;11.68;;
67162;SDS011;54092;53.088;8.850;2022-12-05T13:00:19;31.20;;;11.75;;
67162;SDS011;54092;53.088;8.850;2022-12-05T13:03:04;28.48;;;9.70;;
67162;SDS011;54092;53.088;8.850;2022-12-05T13:05:58;32.10;;;10.73;;
67162;SDS011;54092;53.088;8.850;2022-12-05T13:08:40;33.88;;;10.98;;
67162;SDS011;54092;53.088;8.850;2022-12-05T13:11:11;31.08;;;10.45;;
67162;SDS011;54092;53.088;8.850;2022-12-05T13:13:42;28.17;;;9.95;;
67162;SDS011;54092;53.088;8.850;2022-12-05T13:16:15;28.15;;;8.90;;
67162;SDS011;54092;53.088;8.850;2022-12-05T13:18:48;29.65;;;9.80;;
67162;SDS011;54092;53.088;8.850;2022-12-05T13:21:14;30.45;;;10.48;;
67162;SDS011;54092;53.088;8.850;2022-12-05T13:23:42;31.05;;;10.25;;
67162;SDS011;54092;53.088;8.850;2022-12-05T13:26:11;33.17;;;10.65;;
67162;SDS011;54092;53.088;8.850;2022-12-05T13:28:39;24.75;;;9.48;;
67162;SDS011;54092;53.088;8.850;2022-12-05T13:31:13;32.28;;;9.63;;
67162;SDS011;54092;53.088;8.850;2022-12-05T13:33:49;25.17;;;9.13;;
67162;SDS011;54092;53.088;8.850;2022-12-05T13:36:19;29.42;;;9.88;;
67162;SDS011;54092;53.088;8.850;2022-12-05T13:39:05;27.70;;;9.45;;
67162;SDS011;54092;53.088;8.850;2022-12-05T13:42:01;26.67;;;9.05;;
67162;SDS011;54092;53.088;8.850;2022-12-05T13:44:37;33.47;;;10.93;;
67162;SDS011;54092;53.088;8.850;2022-12-05T13:47:06;33.80;;;9.70;;
67162;SDS011;54092;53.088;8.850;2022-12-05T13:52:31;23.10;;;9.52;;
67162;SDS011;54092;53.088;8.850;2022-12-05T13:55:27;29.10;;;9.90;;
67162;SDS011;54092;53.088;8.850;2022-12-05T13:57:59;27.88;;;9.57;;
67162;SDS011;54092;53.088;8.850;2022-12-05T14:05:36;30.90;;;9.93;;
67162;SDS011;54092;53.088;8.850;2022-12-05T14:08:48;29.27;;;10.20;;
67162;SDS011;54092;53.088;8.850;2022-12-05T14:11:15;27.83;;;9.68;;
67162;SDS011;54092;53.088;8.850;2022-12-05T14:13:42;29.58;;;10.25;;
67162;SDS011;54092;53.088;8.850;2022-12-05T14:16:42;26.48;;;9.02;;
67162;SDS011;54092;53.088;8.850;2022-12-05T14:19:15;29.75;;;9.77;;
67162;SDS011;54092;53.088;8.850;2022-12-05T14:22:12;32.22;;;10.65;;
67162;SDS011;54092;53.088;8.850;2022-12-05T14:30:56;25.20;;;10.20;;
67162;SDS011;54092;53.088;8.850;2022-12-05T14:33:33;24.48;;;9.63;;
67162;SDS011;54092;53.088;8.850;2022-12-05T14:36:03;26.30;;;9.15;;
67162;SDS011;54092;53.088;8.850;2022-12-05T14:38:31;33.67;;;10.38;;
67162;SDS011;54092;53.088;8.850;2022-12-05T14:43:59;32.55;;;10.45;;
67162;SDS011;54092;53.088;8.850;2022-12-05T14:46:30;28.17;;;9.50;;
67162;SDS011;54092;53.088;8.850;2022-12-05T14:54:05;24.95;;;9.48;;
67162;SDS011;54092;53.088;8.850;2022-12-05T14:56:49;33.22;;;10.20;;
67162;SDS011;54092;53.088;8.850;2022-12-05T14:59:31;27.58;;;10.38;;
67162;SDS011;54092;53.088;8.850;2022-12-05T15:02:21;28.95;;;10.32;;
67162;SDS011;54092;53.088;8.850;2022-12-05T15:07:37;30.13;;;10.55;;
67162;SDS011;54092;53.088;8.850;2022-12-05T15:10:05;27.40;;;9.55;;
67162;SDS011;54092;53.088;8.850;2022-12-05T15:12:47;26.90;;;9.52;;
67162;SDS011;54092;53.088;8.850;2022-12-05T15:15:35;27.58;;;10.48;;
67162;SDS011;54092;53.088;8.850;2022-12-05T15:18:21;22.98;;;9.07;;
67162;SDS011;54092;53.088;8.850;2022-12-05T15:23:37;30.52;;;9.90;;
67162;SDS011;54092;53.088;8.850;2022-12-05T15:32:24;25.38;;;8.32;;
67162;SDS011;54092;53.088;8.850;2022-12-05T15:35:01;29.40;;;8.90;;
67162;SDS011;54092;53.088;8.850;2022-12-05T15:37:33;34.88;;;9.90;;
67162;SDS011;54092;53.088;8.850;2022-12-05T15:40:16;24.98;;;9.43;;
67162;SDS011;54092;53.088;8.850;2022-12-05T15:42:46;33.42;;;8.80;;
67162;SDS011;54092;53.088;8.850;2022-12-05T15:45:17;23.88;;;8.48;;
67162;SDS011;54092;53.088;8.850;2022-12-05T15:47:51;26.33;;;9.90;;
67162;SDS011;54092;53.088;8.850;2022-12-05T15:56:04;23.88;;;9.05;;
67162;SDS011;54092;53.088;8.850;2022-12-05T16:01:20;29.85;;;10.05;;
67162;SDS011;54092;53.088;8.850;2022-12-05T16:04:00;21.42;;;8.90;;
67162;SDS011;54092;53.088;8.850;2022-12-05T16:06:34;26.50;;;9.60;;
67162;SDS011;54092;53.088;8.850;2022-12-05T16:09:04;26.77;;;8.82;;
67162;SDS011;54092;53.088;8.850;2022-12-05T16:11:32;26.75;;;9.10;;
67162;SDS011;54092;53.088;8.850;2022-12-05T16:13:59;28.00;;;10.05;;
67162;SDS011;54092;53.088;8.850;2022-12-05T16:16:34;23.75;;;9.00;;
67162;SDS011;54092;53.088;8.850;2022-12-05T16:19:10;25.83;;;8.82;;
67162;SDS011;54092;53.088;8.850;2022-12-05T16:21:45;25.83;;;8.85;;
67162;SDS011;54092;53.088;8.850;2022-12-05T16:24:27;23.63;;;8.63;;
67162;SDS011;54092;53.088;8.850;2022-12-05T16:29:26;88.90;;;33.58;;
67162;SDS011;54092;53.088;8.850;2022-12-05T16:31:56;31.55;;;11.27;;
67162;SDS011;54092;53.088;8.850;2022-12-05T16:34:25;26.45;;;9.35;;
67162;SDS011;54092;53.088;8.850;2022-12-05T16:36:53;24.90;;;9.07;;
67162;SDS011;54092;53.088;8.850;2022-12-05T16:39:20;27.98;;;10.50;;
67162;SDS011;54092;53.088;8.850;2022-12-05T16:41:46;25.75;;;8.85;;
67162;SDS011;54092;53.088;8.850;2022-12-05T16:46:52;24.60;;;9.75;;
67162;SDS011;54092;53.088;8.850;2022-12-05T16:52:32;28.95;;;10.20;;
67162;SDS011;54092;53.088;8.850;2022-12-05T16:54:39;26.15;;;9.65;;
67162;SDS011;54092;53.088;8.850;2022-12-05T16:57:07;27.85;;;11.15;;
67162;SDS011;54092;53.088;8.850;2022-12-05T16:59:36;27.52;;;10.65;;
67162;SDS011;54092;53.088;8.850;2022-12-05T17:02:04;29.98;;;11.23;;
67162;SDS011;54092;53.088;8.850;2022-12-05T17:04:35;30.10;;;10.18;;
67162;SDS011;54092;53.088;8.850;2022-12-05T17:07:01;29.80;;;10.68;;
67162;SDS011;54092;53.088;8.850;2022-12-05T17:09:27;26.25;;;10.13;;
67162;SDS011;54092;53.088;8.850;2022-12-05T17:11:53;25.38;;;9.82;;
67162;SDS011;54092;53.088;8.850;2022-12-05T17:14:39;27.08;;;10.18;;
67162;SDS011;54092;53.088;8.850;2022-12-05T17:17:08;28.20;;;11.35;;
67162;SDS011;54092;53.088;8.850;2022-12-05T17:19:37;29.75;;;10.63;;
67162;SDS011;54092;53.088;8.850;2022-12-05T17:22:03;39.63;;;13.43;;
67162;SDS011;54092;53.088;8.850;2022-12-05T17:24:30;34.40;;;10.73;;
67162;SDS011;54092;53.088;8.850;2022-12-05T17:26:56;26.58;;;11.40;;
67162;SDS011;54092;53.088;8.850;2022-12-05T17:29:21;31.38;;;11.13;;
67162;SDS011;54092;53.088;8.850;2022-12-05T17:31:47;28.15;;;9.88;;
67162;SDS011;54092;53.088;8.850;2022-12-05T17:34:13;29.67;;;10.07;;
67162;SDS011;54092;53.088;8.850;2022-12-05T17:36:40;27.88;;;11.55;;
67162;SDS011;54092;53.088;8.850;2022-12-05T17:39:06;29.27;;;10.02;;
67162;SDS011;54092;53.088;8.850;2022-12-05T17:41:33;32.60;;;12.00;;
67162;SDS011;54092;53.088;8.850;2022-12-05T17:43:58;33.45;;;11.25;;
67162;SDS011;54092;53.088;8.850;2022-12-05T17:46:24;32.13;;;10.15;;
67162;SDS011;54092;53.088;8.850;2022-12-05T17:48:50;27.45;;;10.10;;